createdAt,value
2019-02-03T00:00:45.395Z,3.14
2019-02-03T00:01:53.489Z,3.18
2019-02-03T00:03:01.515Z,3.14
2019-02-03T00:04:09.594Z,3.17
2019-02-03T00:05:17.742Z,3.15
2019-02-03T00:06:25.680Z,3.14
2019-02-03T00:07:33.750Z,3.20
2019-02-03T00:08:41.780Z,3.17
2019-02-03T00:09:49.888Z,3.17
2019-02-03T00:10:57.898Z,3.17
2019-02-03T00:12:05.963Z,3.14
2019-02-03T00:13:13.984Z,3.17
2019-02-03T00:14:22.102Z,3.18
2019-02-03T00:15:30.137Z,3.15
2019-02-03T00:16:38.158Z,3.17
2019-02-03T00:17:46.236Z,3.20
2019-02-03T00:18:54.290Z,3.15
2019-02-03T00:20:02.348Z,3.17
2019-02-03T00:21:10.430Z,3.17
2019-02-03T00:22:18.456Z,3.14
2019-02-03T00:23:26.491Z,3.17
2019-02-03T00:24:34.541Z,3.21
2019-02-03T00:25:42.606Z,3.20
2019-02-03T00:26:50.651Z,3.17
2019-02-03T00:27:58.747Z,3.20
2019-02-03T00:29:06.785Z,3.20
2019-02-03T00:30:14.860Z,3.26
2019-02-03T00:31:22.893Z,3.29
2019-02-03T00:32:30.966Z,3.13
2019-02-03T00:33:38.987Z,3.13
2019-02-03T00:34:47.053Z,3.13
2019-02-03T00:35:55.130Z,3.08
2019-02-03T00:37:14.644Z,3.18
2019-02-03T00:38:20.051Z,3.26
2019-02-03T00:39:19.276Z,3.24
2019-02-03T00:40:27.418Z,3.20
2019-02-03T00:41:35.387Z,3.23
2019-02-03T00:42:43.450Z,3.26
2019-02-03T00:43:51.497Z,3.31
2019-02-03T00:44:59.546Z,3.29
2019-02-03T00:46:07.629Z,3.23
2019-02-03T00:47:15.677Z,3.28
2019-02-03T00:48:23.685Z,3.23
2019-02-03T00:49:31.772Z,3.24
2019-02-03T00:50:39.839Z,3.26
2019-02-03T00:51:47.908Z,3.28
2019-02-03T00:52:55.918Z,3.33
2019-02-03T00:54:03.992Z,3.28
2019-02-03T00:55:12.042Z,3.28
2019-02-03T00:56:20.072Z,3.29
2019-02-03T00:57:28.160Z,3.24
2019-02-03T00:58:36.198Z,3.28
2019-02-03T00:59:44.263Z,3.21
2019-02-03T01:00:52.314Z,3.18
2019-02-03T01:02:00.412Z,3.24
2019-02-03T01:03:08.413Z,3.29
2019-02-03T01:04:16.458Z,3.31
2019-02-03T01:05:24.501Z,3.26
2019-02-03T01:06:32.563Z,3.29
2019-02-03T01:07:40.643Z,3.26
2019-02-03T01:08:48.696Z,3.28
2019-02-03T01:09:56.737Z,3.29
2019-02-03T01:11:04.801Z,3.31
2019-02-03T01:12:12.849Z,3.32
2019-02-03T01:13:20.882Z,3.33
2019-02-03T01:14:28.963Z,3.26
2019-02-03T01:15:37.003Z,3.35
2019-02-03T01:16:45.064Z,3.35
2019-02-03T01:17:53.135Z,3.26
2019-02-03T01:19:01.167Z,3.28
2019-02-03T01:20:09.236Z,3.21
2019-02-03T01:21:17.289Z,3.23
2019-02-03T01:22:25.321Z,3.20
2019-02-03T01:23:33.382Z,3.20
2019-02-03T01:24:41.450Z,3.11
2019-02-03T01:25:49.514Z,3.15
2019-02-03T01:26:57.555Z,3.15
2019-02-03T01:28:05.599Z,3.10
2019-02-03T01:29:13.686Z,3.13
2019-02-03T01:30:21.713Z,3.11
2019-02-03T01:31:29.775Z,3.05
2019-02-03T01:32:37.837Z,2.99
2019-02-03T01:33:45.876Z,3.08
2019-02-03T01:34:53.908Z,2.92
2019-02-03T01:36:01.984Z,3.03
2019-02-03T01:37:10.058Z,2.97
2019-02-03T01:38:18.080Z,3.02
2019-02-03T01:39:26.146Z,2.95
2019-02-03T01:40:34.182Z,3.02
2019-02-03T01:41:42.262Z,3.10
2019-02-03T01:42:50.331Z,3.05
2019-02-03T01:43:58.335Z,3.14
2019-02-03T01:45:06.429Z,3.08
2019-02-03T01:46:14.459Z,3.18
2019-02-03T01:47:22.551Z,3.11
2019-02-03T01:48:30.581Z,3.21
2019-02-03T01:49:38.644Z,3.17
2019-02-03T01:50:46.686Z,3.05
2019-02-03T01:51:54.777Z,3.10
2019-02-03T01:53:02.800Z,3.13
2019-02-03T01:54:10.846Z,3.14
2019-02-03T01:55:18.909Z,3.11
2019-02-03T01:56:26.996Z,3.10
2019-02-03T01:57:35.043Z,3.17
2019-02-03T01:58:43.070Z,3.18
2019-02-03T01:59:51.127Z,3.15
2019-02-03T02:00:59.179Z,3.18
2019-02-03T02:02:07.259Z,3.14
2019-02-03T02:03:15.294Z,3.20
2019-02-03T02:04:23.376Z,3.11
2019-02-03T02:05:31.416Z,3.20
2019-02-03T02:06:39.469Z,3.14
2019-02-03T02:07:51.352Z,3.13
2019-02-03T02:08:55.538Z,3.17
2019-02-03T02:10:03.651Z,3.18
2019-02-03T02:11:11.720Z,3.17
2019-02-03T02:12:19.728Z,3.23
2019-02-03T02:13:27.805Z,3.26
2019-02-03T02:14:35.832Z,3.29
2019-02-03T02:15:43.881Z,3.23
2019-02-03T02:16:51.943Z,3.23
2019-02-03T02:18:00.006Z,3.29
2019-02-03T02:19:08.043Z,3.28
2019-02-03T02:20:16.078Z,3.23
2019-02-03T02:21:24.169Z,3.11
2019-02-03T02:22:32.202Z,3.29
2019-02-03T02:23:40.253Z,3.31
2019-02-03T02:24:48.312Z,3.14
2019-02-03T02:25:56.378Z,3.14
2019-02-03T02:27:04.428Z,3.13
2019-02-03T02:28:12.497Z,3.17
2019-02-03T02:29:20.534Z,3.14
2019-02-03T02:30:28.613Z,3.17
2019-02-03T02:31:36.650Z,3.08
2019-02-03T02:32:44.702Z,3.18
2019-02-03T02:33:52.785Z,3.17
2019-02-03T02:35:00.789Z,3.15
2019-02-03T02:36:08.899Z,3.14
2019-02-03T02:37:16.924Z,3.17
2019-02-03T02:38:24.972Z,3.14
2019-02-03T02:39:35.236Z,3.08
2019-02-03T02:40:41.070Z,3.15
2019-02-03T02:41:49.145Z,3.10
2019-02-03T02:42:57.177Z,3.10
2019-02-03T02:44:05.223Z,3.11
2019-02-03T02:45:13.300Z,3.10
2019-02-03T02:46:21.354Z,3.14
2019-02-03T02:47:29.407Z,3.13
2019-02-03T02:48:37.454Z,3.14
2019-02-03T02:49:45.508Z,3.08
2019-02-03T02:50:53.573Z,3.13
2019-02-03T02:52:01.624Z,2.93
2019-02-03T02:53:09.683Z,3.05
2019-02-03T02:54:17.722Z,3.05
2019-02-03T02:55:25.767Z,3.05
2019-02-03T02:56:33.840Z,3.02
2019-02-03T02:57:41.887Z,3.05
2019-02-03T02:58:49.941Z,2.92
2019-02-03T02:59:58.008Z,2.96
2019-02-03T03:01:06.065Z,2.90
2019-02-03T03:02:14.088Z,2.97
2019-02-03T03:03:22.195Z,2.93
2019-02-03T03:04:30.206Z,3.02
2019-02-03T03:05:38.264Z,2.92
2019-02-03T03:06:46.318Z,2.93
2019-02-03T03:07:54.399Z,2.95
2019-02-03T03:09:02.427Z,2.93
2019-02-03T03:10:10.489Z,2.96
2019-02-03T03:11:18.549Z,2.90
2019-02-03T03:12:26.594Z,2.93
2019-02-03T03:13:34.652Z,2.92
2019-02-03T03:14:42.702Z,2.85
2019-02-03T03:15:50.777Z,2.89
2019-02-03T03:16:58.854Z,2.82
2019-02-03T03:18:06.880Z,2.89
2019-02-03T03:19:14.918Z,2.82
2019-02-03T03:20:22.975Z,2.75
2019-02-03T03:21:31.038Z,2.72
2019-02-03T03:22:39.211Z,2.71
2019-02-03T03:23:47.146Z,2.75
2019-02-03T03:24:55.194Z,2.82
2019-02-03T03:26:03.251Z,2.75
2019-02-03T03:27:11.283Z,2.74
2019-02-03T03:28:19.369Z,2.78
2019-02-03T03:29:27.447Z,2.74
2019-02-03T03:30:35.504Z,2.78
2019-02-03T03:31:43.520Z,2.69
2019-02-03T03:32:51.594Z,2.71
2019-02-03T03:33:59.651Z,2.75
2019-02-03T03:35:07.703Z,2.67
2019-02-03T03:36:15.776Z,2.72
2019-02-03T03:37:23.773Z,2.72
2019-02-03T03:38:32.493Z,2.72
2019-02-03T03:39:39.879Z,2.78
2019-02-03T03:40:47.954Z,2.77
2019-02-03T03:41:55.990Z,2.71
2019-02-03T03:43:04.031Z,2.69
2019-02-03T03:44:12.132Z,2.77
2019-02-03T03:45:20.162Z,2.72
2019-02-03T03:46:28.294Z,2.75
2019-02-03T03:47:36.269Z,2.74
2019-02-03T03:48:44.333Z,2.77
2019-02-03T03:49:52.383Z,2.78
2019-02-03T03:51:00.452Z,2.82
2019-02-03T03:52:08.497Z,2.74
2019-02-03T03:53:16.565Z,2.63
2019-02-03T03:54:24.621Z,2.71
2019-02-03T03:55:32.677Z,2.78
2019-02-03T03:56:40.706Z,2.79
2019-02-03T03:57:48.760Z,2.66
2019-02-03T03:58:56.820Z,2.87
2019-02-03T04:00:04.850Z,2.74
2019-02-03T04:01:12.930Z,2.77
2019-02-03T04:02:20.976Z,2.69
2019-02-03T04:03:29.060Z,2.74
2019-02-03T04:04:37.080Z,2.78
2019-02-03T04:05:45.155Z,2.75
2019-02-03T04:06:53.227Z,2.66
2019-02-03T04:08:01.261Z,2.82
2019-02-03T04:09:09.309Z,2.75
2019-02-03T04:10:17.408Z,2.77
2019-02-03T04:11:25.404Z,2.74
2019-02-03T04:12:33.477Z,2.79
2019-02-03T04:13:41.534Z,2.72
2019-02-03T04:14:49.572Z,2.74
2019-02-03T04:15:57.763Z,2.85
2019-02-03T04:17:05.733Z,2.74
2019-02-03T04:18:13.767Z,2.85
2019-02-03T04:19:21.787Z,2.75
2019-02-03T04:20:29.849Z,2.75
2019-02-03T04:21:38.041Z,2.79
2019-02-03T04:22:45.987Z,2.87
2019-02-03T04:23:54.043Z,2.95
2019-02-03T04:25:02.073Z,2.81
2019-02-03T04:26:10.104Z,2.81
2019-02-03T04:27:18.183Z,2.82
2019-02-03T04:28:26.212Z,2.85
2019-02-03T04:29:34.271Z,2.82
2019-02-03T04:30:42.365Z,2.90
2019-02-03T04:31:50.391Z,2.95
2019-02-03T04:32:58.452Z,2.82
2019-02-03T04:34:06.495Z,2.84
2019-02-03T04:35:14.580Z,2.81
2019-02-03T04:36:22.588Z,2.82
2019-02-03T04:37:30.654Z,2.87
2019-02-03T04:38:38.730Z,2.92
2019-02-03T04:39:46.770Z,2.90
2019-02-03T04:40:54.823Z,2.85
2019-02-03T04:42:02.892Z,2.87
2019-02-03T04:43:10.925Z,2.90
2019-02-03T04:44:18.986Z,2.85
2019-02-03T04:45:27.037Z,2.90
2019-02-03T04:46:35.090Z,2.95
2019-02-03T04:47:43.166Z,2.87
2019-02-03T04:48:51.226Z,2.92
2019-02-03T04:49:59.279Z,3.00
2019-02-03T04:51:07.352Z,2.90
2019-02-03T04:52:15.369Z,2.95
2019-02-03T04:53:23.408Z,2.95
2019-02-03T04:54:31.488Z,2.96
2019-02-03T04:55:39.526Z,2.95
2019-02-03T04:56:47.606Z,2.96
2019-02-03T04:57:55.645Z,2.92
2019-02-03T04:59:03.686Z,2.92
2019-02-03T05:00:11.755Z,2.92
2019-02-03T05:01:19.814Z,2.93
2019-02-03T05:02:27.874Z,2.96
2019-02-03T05:03:35.901Z,2.92
2019-02-03T05:04:43.962Z,2.89
2019-02-03T05:05:52.017Z,2.97
2019-02-03T05:07:00.050Z,2.95
2019-02-03T05:08:08.136Z,2.93
2019-02-03T05:09:16.169Z,2.93
2019-02-03T05:10:24.323Z,2.95
2019-02-03T05:11:32.290Z,2.90
2019-02-03T05:12:40.370Z,2.92
2019-02-03T05:13:48.401Z,2.89
2019-02-03T05:14:56.456Z,2.84
2019-02-03T05:16:04.798Z,2.93
2019-02-03T05:17:12.577Z,2.89
2019-02-03T05:18:21.208Z,2.90
2019-02-03T05:19:29.261Z,2.85
2019-02-03T05:20:37.339Z,2.90
2019-02-03T05:21:45.402Z,2.90
2019-02-03T05:22:52.960Z,2.82
2019-02-03T05:24:01.478Z,2.78
2019-02-03T05:25:09.520Z,2.84
2019-02-03T05:26:17.590Z,2.78
2019-02-03T05:27:25.527Z,2.82
2019-02-03T05:28:33.700Z,2.84
2019-02-03T05:29:41.801Z,2.89
2019-02-03T05:30:49.373Z,2.78
2019-02-03T05:31:57.896Z,2.78
2019-02-03T05:33:05.956Z,2.79
2019-02-03T05:34:13.394Z,2.82
2019-02-03T05:35:21.424Z,2.78
2019-02-03T05:36:29.505Z,2.79
2019-02-03T05:37:37.532Z,2.82
2019-02-03T05:38:45.580Z,2.93
2019-02-03T05:39:53.675Z,2.77
2019-02-03T05:41:01.701Z,2.79
2019-02-03T05:42:09.770Z,2.79
2019-02-03T05:43:17.909Z,2.87
2019-02-03T05:44:26.438Z,2.79
2019-02-03T05:45:34.494Z,2.82
2019-02-03T05:46:41.994Z,2.81
2019-02-03T05:47:50.647Z,2.75
2019-02-03T05:48:58.467Z,2.77
2019-02-03T05:50:06.148Z,2.85
2019-02-03T05:51:14.198Z,2.72
2019-02-03T05:52:22.256Z,2.77
2019-02-03T05:53:30.316Z,2.81
2019-02-03T05:54:38.368Z,2.71
2019-02-03T05:55:46.427Z,2.87
2019-02-03T05:56:54.499Z,2.78
2019-02-03T05:58:02.526Z,2.78
2019-02-03T05:59:10.573Z,2.72
2019-02-03T06:00:18.680Z,2.77
2019-02-03T06:01:27.319Z,2.77
2019-02-03T06:02:34.847Z,2.74
2019-02-03T06:03:42.796Z,2.72
2019-02-03T06:04:51.176Z,2.78
2019-02-03T06:05:58.883Z,2.72
2019-02-03T06:07:07.176Z,2.71
2019-02-03T06:08:14.998Z,2.71
2019-02-03T06:09:23.072Z,2.71
2019-02-03T06:10:31.126Z,2.74
2019-02-03T06:11:39.188Z,2.67
2019-02-03T06:12:47.238Z,2.63
2019-02-03T06:13:55.292Z,2.53
2019-02-03T06:15:03.337Z,2.60
2019-02-03T06:16:11.399Z,2.46
2019-02-03T06:17:19.445Z,2.43
2019-02-03T06:18:27.485Z,2.54
2019-02-03T06:19:35.595Z,2.46
2019-02-03T06:20:43.603Z,2.56
2019-02-03T06:21:51.663Z,2.61
2019-02-03T06:22:59.723Z,2.56
2019-02-03T06:24:07.752Z,2.52
2019-02-03T06:25:15.838Z,2.53
2019-02-03T06:26:23.937Z,2.60
2019-02-03T06:27:31.984Z,2.61
2019-02-03T06:28:39.992Z,2.49
2019-02-03T06:29:48.053Z,2.52
2019-02-03T06:30:56.097Z,2.54
2019-02-03T06:32:04.134Z,2.46
2019-02-03T06:33:12.194Z,2.53
2019-02-03T06:34:20.271Z,2.60
2019-02-03T06:35:28.331Z,2.59
2019-02-03T06:36:36.385Z,2.57
2019-02-03T06:37:44.414Z,2.63
2019-02-03T06:38:52.485Z,2.49
2019-02-03T06:40:00.533Z,2.52
2019-02-03T06:41:08.600Z,2.57
2019-02-03T06:42:16.651Z,2.48
2019-02-03T06:43:24.711Z,2.48
2019-02-03T06:44:32.765Z,2.45
2019-02-03T06:45:40.818Z,2.36
2019-02-03T06:46:48.909Z,2.31
2019-02-03T06:47:59.210Z,2.21
2019-02-03T06:49:04.981Z,2.28
2019-02-03T06:50:13.472Z,2.25
2019-02-03T06:51:21.103Z,2.24
2019-02-03T06:52:29.121Z,2.17
2019-02-03T06:53:40.046Z,2.09
2019-02-03T06:54:45.261Z,2.05
2019-02-03T06:55:53.300Z,2.05
2019-02-03T06:57:01.356Z,1.98
2019-02-03T06:58:09.425Z,2.02
2019-02-03T06:59:17.479Z,1.98
2019-02-03T07:00:25.556Z,1.91
2019-02-03T07:01:33.550Z,2.02
2019-02-03T07:02:41.647Z,2.00
2019-02-03T07:03:49.676Z,1.93
2019-02-03T07:04:57.724Z,2.00
2019-02-03T07:06:05.777Z,1.99
2019-02-03T07:07:13.822Z,1.98
2019-02-03T07:08:21.888Z,1.95
2019-02-03T07:09:29.949Z,1.99
2019-02-03T07:10:37.991Z,1.90
2019-02-03T07:11:46.055Z,2.03
2019-02-03T07:12:54.107Z,1.87
2019-02-03T07:14:02.162Z,1.91
2019-02-03T07:15:10.226Z,1.93
2019-02-03T07:16:18.276Z,1.87
2019-02-03T07:17:26.321Z,1.93
2019-02-03T07:18:34.384Z,1.88
2019-02-03T07:19:42.449Z,2.00
2019-02-03T07:20:50.598Z,1.91
2019-02-03T07:21:58.535Z,1.90
2019-02-03T07:23:06.593Z,1.91
2019-02-03T07:24:14.655Z,2.00
2019-02-03T07:25:22.688Z,1.98
2019-02-03T07:26:30.769Z,1.87
2019-02-03T07:27:38.841Z,1.93
2019-02-03T07:28:46.871Z,1.91
2019-02-03T07:29:54.892Z,1.95
2019-02-03T07:31:02.955Z,1.86
2019-02-03T07:32:11.015Z,1.91
2019-02-03T07:33:19.203Z,1.91
2019-02-03T07:34:27.403Z,1.90
2019-02-03T07:35:35.392Z,1.91
2019-02-03T07:36:43.247Z,1.87
2019-02-03T07:37:51.290Z,1.93
2019-02-03T07:38:59.335Z,1.81
2019-02-03T07:40:12.423Z,1.86
2019-02-03T07:41:15.464Z,1.86
2019-02-03T07:42:23.521Z,1.80
2019-02-03T07:43:31.646Z,1.79
2019-02-03T07:44:39.809Z,1.80
2019-02-03T07:45:47.665Z,1.76
2019-02-03T07:46:58.380Z,1.69
2019-02-03T07:48:03.783Z,1.88
2019-02-03T07:49:11.803Z,1.84
2019-02-03T07:50:19.869Z,1.84
2019-02-03T07:51:28.090Z,1.87
2019-02-03T07:52:35.990Z,1.84
2019-02-03T07:53:44.074Z,1.88
2019-02-03T07:54:52.079Z,1.91
2019-02-03T07:56:00.145Z,1.83
2019-02-03T07:57:08.210Z,1.86
2019-02-03T07:58:16.236Z,1.86
2019-02-03T07:59:24.278Z,1.91
2019-02-03T08:00:32.364Z,1.86
2019-02-03T08:01:40.408Z,1.87
2019-02-03T08:02:48.474Z,1.87
2019-02-03T08:03:56.519Z,1.91
2019-02-03T08:05:04.553Z,1.88
2019-02-03T08:06:12.614Z,1.83
2019-02-03T08:07:20.683Z,1.80
2019-02-03T08:08:28.749Z,1.68
2019-02-03T08:09:36.789Z,1.83
2019-02-03T08:10:44.835Z,1.76
2019-02-03T08:11:52.871Z,1.81
2019-02-03T08:13:00.948Z,1.81
2019-02-03T08:14:08.997Z,1.83
2019-02-03T08:15:17.063Z,1.83
2019-02-03T08:16:25.657Z,1.76
2019-02-03T08:17:33.721Z,1.80
2019-02-03T08:18:41.221Z,1.79
2019-02-03T08:19:49.464Z,1.84
2019-02-03T08:20:57.409Z,1.86
2019-02-03T08:22:05.382Z,1.87
2019-02-03T08:23:13.906Z,1.86
2019-02-03T08:24:21.514Z,1.86
2019-02-03T08:25:29.554Z,1.87
2019-02-03T08:26:37.586Z,1.80
2019-02-03T08:27:45.642Z,1.90
2019-02-03T08:28:53.719Z,1.84
2019-02-03T08:30:01.755Z,1.83
2019-02-03T08:31:09.811Z,1.90
2019-02-03T08:32:17.866Z,1.87
2019-02-03T08:33:26.424Z,2.05
2019-02-03T08:34:33.973Z,1.99
2019-02-03T08:35:42.009Z,2.02
2019-02-03T08:36:50.053Z,2.02
2019-02-03T08:37:58.120Z,2.05
2019-02-03T08:39:06.183Z,2.00
2019-02-03T08:40:14.211Z,2.02
2019-02-03T08:41:22.318Z,1.98
2019-02-03T08:42:31.002Z,1.98
2019-02-03T08:43:39.004Z,1.95
2019-02-03T08:44:46.461Z,2.06
2019-02-03T08:45:54.512Z,1.91
2019-02-03T08:47:02.598Z,2.06
2019-02-03T08:48:10.629Z,2.02
2019-02-03T08:49:18.678Z,2.03
2019-02-03T08:50:26.729Z,2.07
2019-02-03T08:51:34.778Z,1.99
2019-02-03T08:52:42.871Z,2.06
2019-02-03T08:53:50.887Z,2.06
2019-02-03T08:54:58.947Z,2.09
2019-02-03T08:56:07.287Z,2.00
2019-02-03T08:57:15.422Z,2.09
2019-02-03T08:58:23.107Z,2.03
2019-02-03T08:59:31.156Z,2.05
2019-02-03T09:00:39.201Z,2.05
2019-02-03T09:01:47.268Z,2.00
2019-02-03T09:02:55.320Z,1.98
2019-02-03T09:04:03.366Z,2.09
2019-02-03T09:05:11.462Z,1.98
2019-02-03T09:06:19.565Z,1.99
2019-02-03T09:07:27.535Z,1.86
2019-02-03T09:08:35.599Z,2.03
2019-02-03T09:09:43.928Z,2.03
2019-02-03T09:10:53.839Z,1.90
2019-02-03T09:11:59.775Z,1.99
2019-02-03T09:13:07.794Z,1.91
2019-02-03T09:14:15.877Z,1.90
2019-02-03T09:15:23.881Z,1.91
2019-02-03T09:16:32.530Z,1.93
2019-02-03T09:17:40.001Z,1.83
2019-02-03T09:18:48.056Z,2.00
2019-02-03T09:19:57.904Z,1.98
2019-02-03T09:21:04.154Z,1.91
2019-02-03T09:22:12.883Z,1.86
2019-02-03T09:23:20.288Z,1.88
2019-02-03T09:24:28.929Z,1.99
2019-02-03T09:25:38.179Z,2.03
2019-02-03T09:26:44.437Z,2.02
2019-02-03T09:27:52.504Z,1.95
2019-02-03T09:29:00.852Z,1.98
2019-02-03T09:30:08.630Z,1.91
2019-02-03T09:31:16.658Z,2.00
2019-02-03T09:32:24.726Z,1.99
2019-02-03T09:33:32.793Z,1.91
2019-02-03T09:34:41.397Z,2.06
2019-02-03T09:35:48.863Z,2.05
2019-02-03T09:36:56.941Z,2.03
2019-02-03T09:38:04.990Z,1.95
2019-02-03T09:39:13.053Z,1.88
2019-02-03T09:40:21.327Z,1.84
2019-02-03T09:41:29.731Z,1.91
2019-02-03T09:42:37.185Z,2.03
2019-02-03T09:43:45.262Z,1.98
2019-02-03T09:44:53.335Z,1.90
2019-02-03T09:46:01.472Z,2.00
2019-02-03T09:47:09.515Z,1.99
2019-02-03T09:48:17.469Z,1.98
2019-02-03T09:49:25.513Z,2.06
2019-02-03T09:50:33.607Z,2.03
2019-02-03T09:51:41.645Z,2.02
2019-02-03T09:52:49.695Z,1.86
2019-02-03T09:53:57.738Z,1.95
2019-02-03T09:55:05.786Z,1.98
2019-02-03T09:56:13.875Z,1.87
2019-02-03T09:57:21.907Z,1.86
2019-02-03T09:58:29.972Z,1.83
2019-02-03T09:59:38.021Z,1.84
2019-02-03T10:00:46.069Z,1.77
2019-02-03T10:01:54.115Z,1.81
2019-02-03T10:03:02.194Z,1.87
2019-02-03T10:04:10.262Z,1.79
2019-02-03T10:05:18.289Z,1.65
2019-02-03T10:06:26.351Z,1.81
2019-02-03T10:07:34.399Z,1.80
2019-02-03T10:08:42.453Z,1.80
2019-02-03T10:09:50.542Z,1.83
2019-02-03T10:10:58.593Z,1.83
2019-02-03T10:12:06.653Z,1.77
2019-02-03T10:13:14.656Z,1.76
2019-02-03T10:14:22.756Z,1.86
2019-02-03T10:15:30.784Z,1.66
2019-02-03T10:16:38.884Z,1.76
2019-02-03T10:17:46.928Z,1.70
2019-02-03T10:18:55.000Z,1.80
2019-02-03T10:20:03.034Z,1.80
2019-02-03T10:21:11.095Z,1.68
2019-02-03T10:22:19.109Z,1.84
2019-02-03T10:23:27.188Z,1.66
2019-02-03T10:24:41.871Z,1.70
2019-02-03T10:25:43.298Z,1.68
2019-02-03T10:26:51.365Z,1.73
2019-02-03T10:27:59.412Z,1.79
2019-02-03T10:29:07.492Z,1.80
2019-02-03T10:30:15.613Z,1.68
2019-02-03T10:31:23.592Z,1.81
2019-02-03T10:32:31.649Z,1.66
2019-02-03T10:33:39.697Z,1.79
2019-02-03T10:34:47.741Z,1.69
2019-02-03T10:35:55.793Z,1.68
2019-02-03T10:37:03.856Z,1.73
2019-02-03T10:38:11.884Z,1.73
2019-02-03T10:39:19.945Z,1.70
2019-02-03T10:40:27.989Z,1.60
2019-02-03T10:41:36.064Z,1.69
2019-02-03T10:42:44.095Z,1.68
2019-02-03T10:43:52.175Z,1.65
2019-02-03T10:45:00.215Z,1.65
2019-02-03T10:46:08.308Z,1.65
2019-02-03T10:47:16.309Z,1.73
2019-02-03T10:48:24.399Z,1.69
2019-02-03T10:49:32.438Z,1.65
2019-02-03T10:50:40.510Z,1.79
2019-02-03T10:51:48.999Z,1.73
2019-02-03T10:52:56.634Z,1.66
2019-02-03T10:54:04.657Z,1.63
2019-02-03T10:55:12.695Z,1.65
2019-02-03T10:56:20.786Z,1.55
2019-02-03T10:57:28.827Z,1.54
2019-02-03T10:58:36.889Z,1.51
2019-02-03T10:59:44.919Z,1.50
2019-02-03T11:00:55.017Z,1.45
2019-02-03T11:02:01.027Z,1.48
2019-02-03T11:03:09.088Z,1.40
2019-02-03T11:04:17.175Z,1.41
2019-02-03T11:05:25.210Z,1.40
2019-02-03T11:06:33.256Z,1.40
2019-02-03T11:07:41.296Z,1.44
2019-02-03T11:08:49.345Z,1.47
2019-02-03T11:09:57.409Z,1.47
2019-02-03T11:11:05.465Z,1.50
2019-02-03T11:12:13.512Z,1.48
2019-02-03T11:13:21.604Z,1.54
2019-02-03T11:14:29.614Z,1.59
2019-02-03T11:15:37.680Z,1.59
2019-02-03T11:16:45.741Z,1.60
2019-02-03T11:17:53.772Z,1.65
2019-02-03T11:19:01.857Z,1.68
2019-02-03T11:20:09.896Z,1.68
2019-02-03T11:21:17.964Z,1.69
2019-02-03T11:22:25.982Z,1.70
2019-02-03T11:23:34.043Z,1.66
2019-02-03T11:24:42.131Z,1.70
2019-02-03T11:25:50.168Z,1.73
2019-02-03T11:26:58.262Z,1.70
2019-02-03T11:28:06.271Z,1.70
2019-02-03T11:29:14.318Z,1.83
2019-02-03T11:30:22.381Z,1.79
2019-02-03T11:31:30.452Z,1.81
2019-02-03T11:32:38.494Z,1.79
2019-02-03T11:33:46.555Z,1.77
2019-02-03T11:34:54.585Z,1.81
2019-02-03T11:36:02.688Z,1.77
2019-02-03T11:37:10.711Z,1.77
2019-02-03T11:38:18.773Z,1.79
2019-02-03T11:39:26.863Z,1.84
2019-02-03T11:40:34.893Z,1.83
2019-02-03T11:41:48.903Z,1.65
2019-02-03T11:42:50.979Z,1.65
2019-02-03T11:43:59.173Z,1.81
2019-02-03T11:45:07.099Z,1.68
2019-02-03T11:46:15.173Z,1.62
2019-02-03T11:47:23.187Z,1.58
2019-02-03T11:48:31.266Z,1.55
2019-02-03T11:49:39.312Z,1.48
2019-02-03T11:50:47.359Z,1.48
2019-02-03T11:51:55.413Z,1.48
2019-02-03T11:53:03.487Z,1.55
2019-02-03T11:54:11.578Z,1.50
2019-02-03T11:55:19.593Z,1.45
2019-02-03T11:56:27.634Z,1.36
2019-02-03T11:57:35.671Z,1.37
2019-02-03T11:58:43.728Z,1.47
2019-02-03T11:59:51.782Z,1.41
2019-02-03T12:00:59.844Z,1.41
2019-02-03T12:02:07.926Z,1.42
2019-02-03T12:03:15.986Z,1.37
2019-02-03T12:04:23.988Z,1.40
2019-02-03T12:05:32.078Z,1.32
2019-02-03T12:06:40.136Z,1.32
2019-02-03T12:07:48.170Z,1.26
2019-02-03T12:08:56.286Z,1.37
2019-02-03T12:10:04.263Z,1.40
2019-02-03T12:11:12.333Z,1.37
2019-02-03T12:12:20.393Z,1.40
2019-02-03T12:13:28.451Z,1.40
2019-02-03T12:14:36.510Z,1.51
2019-02-03T12:15:47.744Z,1.42
2019-02-03T12:16:52.604Z,1.48
2019-02-03T12:18:00.687Z,1.52
2019-02-03T12:19:08.731Z,1.40
2019-02-03T12:20:16.813Z,1.47
2019-02-03T12:21:24.849Z,1.50
2019-02-03T12:22:32.878Z,1.45
2019-02-03T12:23:41.005Z,1.45
2019-02-03T12:24:49.002Z,1.40
2019-02-03T12:25:57.057Z,1.47
2019-02-03T12:27:05.121Z,1.59
2019-02-03T12:28:13.153Z,1.54
2019-02-03T12:29:21.194Z,1.62
2019-02-03T12:30:29.243Z,1.59
2019-02-03T12:31:37.319Z,1.60
2019-02-03T12:32:45.366Z,1.55
2019-02-03T12:33:53.445Z,1.48
2019-02-03T12:35:01.485Z,1.55
2019-02-03T12:36:09.590Z,1.51
2019-02-03T12:37:17.594Z,1.51
2019-02-03T12:38:25.650Z,1.52
2019-02-03T12:39:33.714Z,1.45
2019-02-03T12:40:41.895Z,1.37
2019-02-03T12:41:49.788Z,1.36
2019-02-03T12:42:57.868Z,1.33
2019-02-03T12:44:05.916Z,1.32
2019-02-03T12:45:13.974Z,1.47
2019-02-03T12:46:22.040Z,1.34
2019-02-03T12:47:30.087Z,1.37
2019-02-03T12:48:38.129Z,1.36
2019-02-03T12:49:46.193Z,1.48
2019-02-03T12:50:54.237Z,1.59
2019-02-03T12:52:02.297Z,1.44
2019-02-03T12:53:10.380Z,1.51
2019-02-03T12:54:18.393Z,1.50
2019-02-03T12:55:26.452Z,1.48
2019-02-03T12:56:34.480Z,1.48
2019-02-03T12:57:42.578Z,1.52
2019-02-03T12:58:50.640Z,1.58
2019-02-03T12:59:58.693Z,1.52
2019-02-03T13:01:06.724Z,1.45
2019-02-03T13:02:14.788Z,1.36
2019-02-03T13:03:25.207Z,1.30
2019-02-03T13:04:30.896Z,1.34
2019-02-03T13:05:38.940Z,1.26
2019-02-03T13:06:46.998Z,1.40
2019-02-03T13:07:55.080Z,1.37
2019-02-03T13:09:05.869Z,1.23
2019-02-03T13:10:16.530Z,1.20
2019-02-03T13:11:19.241Z,1.16
2019-02-03T13:12:27.527Z,1.11
2019-02-03T13:13:35.353Z,1.24
2019-02-03T13:14:43.367Z,1.26
2019-02-03T13:15:51.432Z,1.14
2019-02-03T13:16:59.523Z,1.15
2019-02-03T13:18:07.557Z,1.14
2019-02-03T13:19:15.951Z,1.26
2019-02-03T13:20:23.655Z,1.26
2019-02-03T13:21:31.718Z,1.18
2019-02-03T13:22:39.770Z,1.23
2019-02-03T13:23:47.802Z,1.24
2019-02-03T13:24:55.897Z,1.18
2019-02-03T13:26:03.922Z,1.18
2019-02-03T13:27:11.979Z,1.14
2019-02-03T13:28:20.023Z,1.20
2019-02-03T13:29:28.096Z,1.12
2019-02-03T13:30:36.148Z,1.11
2019-02-03T13:31:44.269Z,1.15
2019-02-03T13:32:52.246Z,1.14
2019-02-03T13:34:00.308Z,1.18
2019-02-03T13:35:08.367Z,1.15
2019-02-03T13:36:16.421Z,1.14
2019-02-03T13:37:24.458Z,1.15
2019-02-03T13:38:32.514Z,1.15
2019-02-03T13:39:40.574Z,1.15
2019-02-03T13:40:48.799Z,1.16
2019-02-03T13:41:56.684Z,1.18
2019-02-03T13:43:04.761Z,1.15
2019-02-03T13:44:12.800Z,1.12
2019-02-03T13:45:21.198Z,1.06
2019-02-03T13:46:28.879Z,1.02
2019-02-03T13:47:36.967Z,0.98
2019-02-03T13:48:45.097Z,1.08
2019-02-03T13:49:53.048Z,0.93
2019-02-03T13:51:01.134Z,0.93
2019-02-03T13:52:09.163Z,0.91
2019-02-03T13:53:17.235Z,0.93
2019-02-03T13:54:25.366Z,0.90
2019-02-03T13:55:33.312Z,0.93
2019-02-03T13:56:41.382Z,0.90
2019-02-03T13:57:49.422Z,0.79
2019-02-03T13:58:57.516Z,0.84
2019-02-03T14:00:05.530Z,0.86
2019-02-03T14:01:13.610Z,0.78
2019-02-03T14:02:21.657Z,0.76
2019-02-03T14:03:29.716Z,0.72
2019-02-03T14:04:37.770Z,0.72
2019-02-03T14:05:45.803Z,0.84
2019-02-03T14:06:53.850Z,0.87
2019-02-03T14:08:01.958Z,0.80
2019-02-03T14:09:09.959Z,0.86
2019-02-03T14:10:18.020Z,0.84
2019-02-03T14:11:26.873Z,0.78
2019-02-03T14:12:34.112Z,0.83
2019-02-03T14:13:42.183Z,0.83
2019-02-03T14:14:50.251Z,0.76
2019-02-03T14:15:58.289Z,0.88
2019-02-03T14:17:06.359Z,0.84
2019-02-03T14:18:14.384Z,0.84
2019-02-03T14:19:22.485Z,0.76
2019-02-03T14:20:30.528Z,0.75
2019-02-03T14:21:38.560Z,0.75
2019-02-03T14:22:46.590Z,0.72
2019-02-03T14:23:54.650Z,0.75
2019-02-03T14:25:02.732Z,0.87
2019-02-03T14:26:10.750Z,0.84
2019-02-03T14:27:18.832Z,0.75
2019-02-03T14:28:26.878Z,0.83
2019-02-03T14:29:34.926Z,0.87
2019-02-03T14:30:42.992Z,0.87
2019-02-03T14:31:51.048Z,0.91
2019-02-03T14:32:59.086Z,0.90
2019-02-03T14:34:07.153Z,0.79
2019-02-03T14:35:15.181Z,0.79
2019-02-03T14:36:23.262Z,0.88
2019-02-03T14:37:31.315Z,0.78
2019-02-03T14:38:39.376Z,0.88
2019-02-03T14:39:47.400Z,0.88
2019-02-03T14:40:55.489Z,0.84
2019-02-03T14:42:03.547Z,0.87
2019-02-03T14:43:11.575Z,0.84
2019-02-03T14:44:19.611Z,0.73
2019-02-03T14:45:27.687Z,0.78
2019-02-03T14:46:35.737Z,0.84
2019-02-03T14:47:43.772Z,0.84
2019-02-03T14:48:51.821Z,0.75
2019-02-03T14:49:59.880Z,0.75
2019-02-03T14:51:07.944Z,0.68
2019-02-03T14:52:15.990Z,0.72
2019-02-03T14:53:24.044Z,0.70
2019-02-03T14:54:32.126Z,0.70
2019-02-03T14:55:40.184Z,0.73
2019-02-03T14:56:48.196Z,0.73
2019-02-03T14:57:56.251Z,0.72
2019-02-03T14:59:04.297Z,0.76
2019-02-03T15:00:12.373Z,0.69
2019-02-03T15:01:20.408Z,0.70
2019-02-03T15:02:28.475Z,0.70
2019-02-03T15:03:36.532Z,0.70
2019-02-03T15:04:44.598Z,0.69
2019-02-03T15:05:52.634Z,0.72